Time;durP1;ratioP1;P1;durP2;ratioP2;P2;SDS_P1;SDS_P2;PMS_P1;PMS_P2;Temp;Humidity;BMP_temperature;BMP_pressure;BME280_temperature;BME280_humidity;BME280_pressure;Samples;Min_cycle;Max_cycle;Signal;HPM_P1;HPM_P2
2021/08/22 00:01:34;;;;;;;2.95;2.47;;;15.70;99.90;;;;;;4946550;28;20015;-50
2021/08/22 00:04:00;;;;;;;2.53;2.33;;;15.70;99.90;;;;;;4950834;29;20082;-47
2021/08/22 00:06:25;;;;;;;2.30;2.08;;;15.60;99.90;;;;;;4945830;28;20019;-49
2021/08/22 00:08:51;;;;;;;3.05;2.20;;;15.70;99.90;;;;;;4949450;29;20058;-50
2021/08/22 00:11:16;;;;;;;2.08;1.88;;;15.70;99.90;;;;;;4946399;28;20241;-53
2021/08/22 00:13:42;;;;;;;2.58;2.30;;;15.70;99.90;;;;;;4948548;29;20026;-50
2021/08/22 00:16:07;;;;;;;3.60;2.25;;;15.60;99.90;;;;;;4943812;28;20085;-50
2021/08/22 00:18:33;;;;;;;2.67;2.47;;;15.70;99.90;;;;;;4946381;29;20028;-49
2021/08/22 00:20:59;;;;;;;5.03;2.90;;;15.70;99.90;;;;;;4965015;28;20051;-52
2021/08/22 00:23:24;;;;;;;2.78;2.25;;;15.60;99.90;;;;;;4945322;29;20493;-49
2021/08/22 00:25:50;;;;;;;2.80;2.10;;;15.70;99.90;;;;;;4947165;29;20035;-48
2021/08/22 00:28:16;;;;;;;2.70;2.50;;;15.70;99.90;;;;;;4944722;28;20034;-51
2021/08/22 00:30:41;;;;;;;2.13;1.92;;;15.60;99.90;;;;;;4950915;28;20027;-48
2021/08/22 00:33:07;;;;;;;2.42;2.05;;;15.60;99.90;;;;;;4944006;29;20031;-53
2021/08/22 00:35:32;;;;;;;2.90;2.45;;;15.60;99.90;;;;;;4947888;28;20540;-46
2021/08/22 00:37:59;;;;;;;2.17;1.98;;;15.60;99.90;;;;;;4945687;29;20506;-47
2021/08/22 00:40:25;;;;;;;2.88;2.67;;;15.60;99.90;;;;;;4945786;29;20039;-53
2021/08/22 00:42:51;;;;;;;2.55;2.22;;;15.60;99.90;;;;;;4949323;28;20027;-49
2021/08/22 00:45:17;;;;;;;3.03;2.00;;;15.60;99.90;;;;;;4948912;29;20023;-50
2021/08/22 00:47:45;;;;;;;3.17;2.35;;;15.60;99.90;;;;;;4949858;28;20038;-54
2021/08/22 00:50:13;;;;;;;2.60;2.40;;;15.60;99.90;;;;;;4947866;28;20565;-50
2021/08/22 00:52:39;;;;;;;2.40;2.20;;;15.60;99.90;;;;;;4948642;28;20455;-49
2021/08/22 00:55:06;;;;;;;2.55;2.35;;;15.60;99.90;;;;;;4948505;29;20031;-47
2021/08/22 00:57:33;;;;;;;2.08;1.88;;;15.60;99.90;;;;;;4944975;29;20398;-54
2021/08/22 01:00:07;;;;;;;2.05;1.80;;;15.60;99.90;;;;;;4947257;28;20037;-52
2021/08/22 01:02:39;;;;;;;3.75;2.20;;;15.60;99.90;;;;;;4941728;28;20028;-50
2021/08/22 01:05:27;;;;;;;2.20;2.00;;;15.60;99.90;;;;;;4948622;28;20027;-49
2021/08/22 01:08:16;;;;;;;2.28;2.08;;;15.60;99.90;;;;;;4946370;29;20050;-49
2021/08/22 01:10:45;;;;;;;2.40;2.20;;;15.60;99.90;;;;;;4945356;29;20556;-55
2021/08/22 01:13:17;;;;;;;2.15;1.95;;;15.60;99.90;;;;;;4944477;28;20490;-50
2021/08/22 01:15:46;;;;;;;5.45;2.33;;;15.60;99.90;;;;;;4945910;28;20421;-49
2021/08/22 01:18:16;;;;;;;2.15;1.95;;;15.50;99.90;;;;;;4944305;28;20027;-51
2021/08/22 01:21:03;;;;;;;2.22;1.52;;;15.60;99.90;;;;;;4947283;29;20023;-51
2021/08/22 01:23:29;;;;;;;2.80;1.83;;;15.60;99.90;;;;;;4943857;29;20028;-48
2021/08/22 01:25:56;;;;;;;5.20;1.95;;;15.60;99.90;;;;;;4945968;29;20105;-55
2021/08/22 01:28:23;;;;;;;2.15;1.83;;;15.50;99.90;;;;;;4942998;29;20056;-46
2021/08/22 01:30:50;;;;;;;2.78;1.92;;;15.50;99.90;;;;;;4950320;28;20494;-51
2021/08/22 01:33:18;;;;;;;1.90;1.80;;;15.50;99.90;;;;;;4946021;29;20039;-48
2021/08/22 01:35:45;;;;;;;2.15;1.85;;;15.50;99.90;;;;;;4949998;28;20051;-51
2021/08/22 01:38:11;;;;;;;3.70;1.92;;;15.50;99.90;;;;;;4944357;29;20034;-47
2021/08/22 01:40:39;;;;;;;2.22;1.90;;;15.50;99.90;;;;;;4949758;28;20421;-52
2021/08/22 01:43:05;;;;;;;4.45;2.20;;;15.40;99.90;;;;;;4943745;29;20389;-47
2021/08/22 01:45:32;;;;;;;2.35;1.98;;;15.40;99.90;;;;;;4947612;29;20055;-49
2021/08/22 01:47:59;;;;;;;1.80;1.70;;;15.40;99.90;;;;;;4951797;28;20027;-51
2021/08/22 01:50:25;;;;;;;2.15;1.90;;;15.40;99.90;;;;;;4950247;29;20066;-47
2021/08/22 01:52:56;;;;;;;2.28;2.08;;;15.40;99.90;;;;;;4953865;28;20047;-48
2021/08/22 01:55:22;;;;;;;1.77;1.67;;;15.30;99.90;;;;;;4948453;29;20031;-51
2021/08/22 01:57:47;;;;;;;2.97;1.70;;;15.30;99.90;;;;;;4953882;28;20374;-54
2021/08/22 02:00:14;;;;;;;2.00;1.80;;;15.30;99.90;;;;;;4946506;29;20513;-49
2021/08/22 02:03:04;;;;;;;1.73;1.63;;;15.30;99.90;;;;;;4953764;28;20038;-48
2021/08/22 02:05:33;;;;;;;1.83;1.73;;;15.30;99.90;;;;;;4946144;29;20012;-51
2021/08/22 02:07:59;;;;;;;3.20;2.00;;;15.20;99.90;;;;;;4952907;28;20030;-50
2021/08/22 02:10:33;;;;;;;2.08;1.80;;;15.20;99.90;;;;;;4949224;29;20527;-50
2021/08/22 02:13:01;;;;;;;2.88;2.05;;;15.20;99.90;;;;;;4951364;28;20035;-52
2021/08/22 02:15:41;;;;;;;3.38;2.33;;;15.20;99.90;;;;;;4947260;29;20057;-48
2021/08/22 02:18:11;;;;;;;2.28;2.08;;;15.20;99.90;;;;;;4951494;29;20027;-51
2021/08/22 02:20:38;;;;;;;3.00;2.05;;;15.10;99.90;;;;;;4952752;29;20019;-52
2021/08/22 02:23:04;;;;;;;4.43;1.88;;;15.10;99.90;;;;;;4949539;28;20045;-53
2021/08/22 02:25:31;;;;;;;2.65;1.88;;;15.10;99.90;;;;;;4952030;29;20118;-51
2021/08/22 02:27:58;;;;;;;2.65;2.05;;;15.10;99.90;;;;;;4946840;29;20029;-52
2021/08/22 02:30:24;;;;;;;1.58;1.48;;;15.10;99.90;;;;;;4953518;28;20019;-49
2021/08/22 02:32:51;;;;;;;3.92;1.92;;;15.10;99.90;;;;;;4949563;29;20015;-48
2021/08/22 02:35:17;;;;;;;3.97;2.10;;;15.00;99.90;;;;;;4966326;28;20082;-50
2021/08/22 02:37:42;;;;;;;3.90;1.77;;;15.00;99.90;;;;;;4963732;28;20023;-54
2021/08/22 02:40:09;;;;;;;3.08;1.90;;;15.00;99.90;;;;;;4951372;29;20020;-49
2021/08/22 02:42:34;;;;;;;5.35;2.00;;;15.00;99.90;;;;;;4948075;29;20019;-51
2021/08/22 02:45:00;;;;;;;3.88;2.22;;;15.00;99.90;;;;;;4948912;28;20449;-47
2021/08/22 02:47:25;;;;;;;2.28;2.08;;;15.00;99.90;;;;;;4952020;29;20453;-51
2021/08/22 02:49:51;;;;;;;3.20;1.88;;;15.00;99.90;;;;;;4953060;29;20027;-51
2021/08/22 02:52:16;;;;;;;3.15;1.85;;;15.00;99.90;;;;;;4951706;28;20427;-52
2021/08/22 02:54:42;;;;;;;1.98;1.60;;;15.00;99.90;;;;;;4948161;29;20023;-47
2021/08/22 02:57:07;;;;;;;3.58;1.85;;;15.00;99.90;;;;;;4949524;29;20031;-48
2021/08/22 02:59:33;;;;;;;2.47;1.58;;;15.00;99.90;;;;;;4947370;28;20510;-47
2021/08/22 03:01:59;;;;;;;1.73;1.42;;;15.00;99.90;;;;;;4949589;28;20023;-49
2021/08/22 03:04:25;;;;;;;1.92;1.73;;;15.00;99.90;;;;;;4952513;28;20437;-47
2021/08/22 03:06:50;;;;;;;2.58;1.75;;;15.00;99.90;;;;;;4948599;29;20390;-49
2021/08/22 03:09:16;;;;;;;1.85;1.67;;;15.00;99.90;;;;;;4949951;28;20027;-48
2021/08/22 03:11:42;;;;;;;2.10;1.90;;;15.00;99.90;;;;;;4948238;28;20031;-53
2021/08/22 03:14:07;;;;;;;2.67;1.70;;;15.00;99.90;;;;;;4950297;29;20034;-49
2021/08/22 03:16:33;;;;;;;2.08;1.58;;;15.00;99.90;;;;;;4945923;29;20545;-50
2021/08/22 03:18:58;;;;;;;1.65;1.52;;;14.90;99.90;;;;;;4949194;29;20023;-52
2021/08/22 03:21:24;;;;;;;2.80;1.63;;;14.90;99.90;;;;;;4951861;28;20054;-53
2021/08/22 03:23:49;;;;;;;1.88;1.60;;;14.90;99.90;;;;;;4948726;29;20035;-54
2021/08/22 03:26:15;;;;;;;3.03;2.05;;;14.90;99.90;;;;;;4950686;29;20033;-49
2021/08/22 03:28:41;;;;;;;1.48;1.38;;;14.90;99.90;;;;;;4944567;29;20023;-49
2021/08/22 03:31:07;;;;;;;3.40;1.42;;;14.90;99.90;;;;;;4949613;29;20082;-50
2021/08/22 03:33:32;;;;;;;2.67;1.95;;;15.00;99.90;;;;;;4949845;29;20037;-53
2021/08/22 03:35:58;;;;;;;2.13;1.92;;;15.00;99.90;;;;;;4946948;29;20116;-49
2021/08/22 03:38:23;;;;;;;2.22;1.60;;;15.00;99.90;;;;;;4946771;29;20020;-50
2021/08/22 03:40:49;;;;;;;2.40;1.40;;;15.00;99.90;;;;;;4950704;29;20027;-48
2021/08/22 03:43:14;;;;;;;2.95;1.25;;;15.00;99.90;;;;;;4949026;28;20075;-51
2021/08/22 03:45:40;;;;;;;1.83;1.58;;;15.00;99.90;;;;;;4951608;28;20042;-51
2021/08/22 03:48:06;;;;;;;1.95;1.70;;;15.00;99.90;;;;;;4949963;28;20441;-49
2021/08/22 03:50:32;;;;;;;3.45;2.00;;;15.00;99.90;;;;;;4949230;29;20042;-49
2021/08/22 03:52:58;;;;;;;2.28;2.08;;;15.00;99.90;;;;;;4951090;28;20078;-48
2021/08/22 03:55:23;;;;;;;2.28;1.63;;;15.00;99.90;;;;;;4946242;29;20541;-50
2021/08/22 03:57:49;;;;;;;3.17;1.50;;;15.00;99.90;;;;;;4951627;28;20028;-54
2021/08/22 04:00:15;;;;;;;2.38;1.70;;;15.00;99.90;;;;;;4944011;29;20023;-50
2021/08/22 04:02:41;;;;;;;2.22;1.50;;;15.00;99.90;;;;;;4950206;28;20537;-47
2021/08/22 04:05:09;;;;;;;2.88;1.52;;;14.90;99.90;;;;;;4949569;29;20042;-47
2021/08/22 04:07:36;;;;;;;1.67;1.58;;;15.00;99.90;;;;;;4949282;29;20136;-49
2021/08/22 04:10:04;;;;;;;3.50;1.67;;;15.00;99.90;;;;;;4949475;28;20035;-50
2021/08/22 04:12:30;;;;;;;3.08;1.52;;;14.90;99.90;;;;;;4947170;28;20342;-47
2021/08/22 04:14:55;;;;;;;1.55;1.27;;;15.00;99.90;;;;;;4950566;28;20031;-52
2021/08/22 04:17:21;;;;;;;2.13;1.75;;;15.00;99.90;;;;;;4943964;29;20396;-51
2021/08/22 04:19:47;;;;;;;2.83;1.40;;;14.90;99.90;;;;;;4950593;28;20390;-49
2021/08/22 04:22:12;;;;;;;4.80;1.85;;;14.90;99.90;;;;;;4948103;28;20094;-47
2021/08/22 04:24:38;;;;;;;1.55;1.45;;;14.90;99.90;;;;;;4949120;29;20102;-50
2021/08/22 04:27:05;;;;;;;1.65;1.45;;;14.90;99.90;;;;;;4950982;28;20397;-47
2021/08/22 04:29:34;;;;;;;1.88;1.33;;;14.90;99.90;;;;;;4944928;28;20027;-49
2021/08/22 04:31:59;;;;;;;1.50;1.40;;;14.90;99.90;;;;;;4947026;29;20031;-51
2021/08/22 04:34:25;;;;;;;2.47;1.38;;;14.90;99.90;;;;;;4949107;29;20027;-55
2021/08/22 04:36:50;;;;;;;2.72;1.60;;;14.90;99.90;;;;;;4946819;29;20027;-50
2021/08/22 04:39:16;;;;;;;2.55;1.95;;;14.90;99.90;;;;;;4949282;28;20110;-47
2021/08/22 04:41:45;;;;;;;1.83;1.40;;;14.90;99.90;;;;;;4945766;29;20031;-48
2021/08/22 04:44:12;;;;;;;3.05;1.30;;;14.90;99.90;;;;;;4948241;28;20109;-51
2021/08/22 04:46:38;;;;;;;3.85;1.40;;;15.00;99.90;;;;;;4950017;29;20071;-46
2021/08/22 04:49:03;;;;;;;2.00;1.13;;;15.00;99.90;;;;;;4947258;28;20031;-47
2021/08/22 04:51:30;;;;;;;1.75;1.17;;;15.00;99.90;;;;;;4949790;28;20028;-48
2021/08/22 04:53:56;;;;;;;1.55;1.27;;;15.00;99.90;;;;;;4946416;29;20070;-48
2021/08/22 04:56:23;;;;;;;2.00;1.40;;;15.00;99.90;;;;;;4948780;29;20023;-47
2021/08/22 04:58:48;;;;;;;1.40;1.30;;;15.00;99.90;;;;;;4945508;29;20110;-46
2021/08/22 05:01:15;;;;;;;1.55;1.30;;;15.10;99.90;;;;;;4946655;29;20504;-49
2021/08/22 05:03:41;;;;;;;1.42;1.33;;;15.10;99.90;;;;;;4950038;28;20505;-47
2021/08/22 05:06:08;;;;;;;1.73;1.20;;;15.10;99.90;;;;;;4947223;28;20513;-52
2021/08/22 05:08:33;;;;;;;3.22;1.75;;;15.10;99.90;;;;;;4949595;28;20031;-54
2021/08/22 05:10:59;;;;;;;2.17;1.48;;;15.20;99.90;;;;;;4945285;29;20031;-47
2021/08/22 05:13:25;;;;;;;2.30;1.20;;;15.20;99.90;;;;;;4948541;28;20019;-49
2021/08/22 05:15:51;;;;;;;1.70;1.60;;;15.20;99.90;;;;;;4945265;29;20035;-48
2021/08/22 05:18:26;;;;;;;2.28;1.30;;;15.30;99.90;;;;;;4947650;28;20026;-47
2021/08/22 05:20:51;;;;;;;1.50;1.15;;;15.30;99.90;;;;;;4949850;29;20038;-52
2021/08/22 05:23:21;;;;;;;1.45;1.35;;;15.30;99.90;;;;;;4970111;23;20042;-52
2021/08/22 05:25:47;;;;;;;2.78;1.25;;;15.30;99.90;;;;;;4995651;28;20149;-52
2021/08/22 05:28:12;;;;;;;2.13;1.30;;;15.30;99.90;;;;;;4991600;28;20154;-53
2021/08/22 05:30:38;;;;;;;2.08;1.40;;;15.30;99.90;;;;;;4996946;28;20117;-51
2021/08/22 05:33:04;;;;;;;1.08;0.98;;;15.30;99.90;;;;;;4993397;28;20038;-52
2021/08/22 05:35:30;;;;;;;4.43;1.30;;;15.30;99.90;;;;;;4988781;28;20026;-52
2021/08/22 05:37:56;;;;;;;2.13;1.10;;;15.30;99.90;;;;;;4989209;28;20045;-51
2021/08/22 05:40:21;;;;;;;1.60;1.33;;;15.30;99.90;;;;;;4988831;28;20031;-53
2021/08/22 05:42:47;;;;;;;1.30;1.17;;;15.40;99.90;;;;;;4988781;28;20052;-51
2021/08/22 05:45:12;;;;;;;2.35;1.33;;;15.40;99.90;;;;;;4988586;28;20508;-52
2021/08/22 05:47:38;;;;;;;1.25;1.15;;;15.40;99.90;;;;;;4988975;28;20116;-53
2021/08/22 05:50:05;;;;;;;1.20;1.10;;;15.40;99.90;;;;;;4988964;28;20101;-53
2021/08/22 05:52:35;;;;;;;4.13;1.30;;;15.40;99.90;;;;;;4988929;28;20026;-51
2021/08/22 05:55:09;;;;;;;2.42;1.30;;;15.40;99.90;;;;;;4989136;28;20696;-53
2021/08/22 05:57:35;;;;;;;1.52;1.42;;;15.40;99.90;;;;;;4982882;28;20037;-50
2021/08/22 06:00:01;;;;;;;1.73;0.95;;;15.50;99.90;;;;;;4988643;28;20023;-52
2021/08/22 06:02:27;;;;;;;1.88;1.48;;;15.50;99.90;;;;;;4988440;28;20022;-52
2021/08/22 06:04:52;;;;;;;2.45;1.10;;;15.50;99.90;;;;;;4988273;28;20381;-54
2021/08/22 06:07:21;;;;;;;2.20;1.15;;;15.50;99.90;;;;;;4985061;28;20062;-53
2021/08/22 06:09:50;;;;;;;1.58;1.40;;;15.50;99.90;;;;;;5003722;28;20018;-53
2021/08/22 06:12:17;;;;;;;1.92;1.60;;;15.50;99.90;;;;;;4989550;28;20486;-54
2021/08/22 06:14:43;;;;;;;1.52;1.30;;;15.50;99.90;;;;;;4989476;28;20133;-53
2021/08/22 06:17:09;;;;;;;1.95;1.35;;;15.50;99.90;;;;;;4988630;28;20669;-52
2021/08/22 06:19:34;;;;;;;2.00;1.30;;;15.50;99.90;;;;;;4988570;28;20097;-51
2021/08/22 06:22:00;;;;;;;1.50;1.13;;;15.50;99.90;;;;;;4988666;28;20034;-51
2021/08/22 06:24:25;;;;;;;2.40;1.08;;;15.50;99.90;;;;;;4986736;28;20030;-52
2021/08/22 06:26:51;;;;;;;3.50;1.33;;;15.50;99.90;;;;;;4988112;28;20026;-52
2021/08/22 06:29:17;;;;;;;1.92;1.10;;;15.60;99.90;;;;;;4982220;28;20037;-51
2021/08/22 06:31:42;;;;;;;4.25;1.25;;;15.60;99.90;;;;;;4988209;28;20077;-51
2021/08/22 06:34:09;;;;;;;1.48;1.33;;;15.50;99.90;;;;;;4990472;28;20030;-51
2021/08/22 06:36:39;;;;;;;1.27;1.17;;;15.60;99.90;;;;;;4990975;28;20388;-55
2021/08/22 06:39:06;;;;;;;1.90;1.30;;;15.60;99.90;;;;;;4991993;28;20027;-52
2021/08/22 06:41:31;;;;;;;3.88;1.58;;;15.60;99.90;;;;;;4991826;28;20022;-51
2021/08/22 06:43:57;;;;;;;2.25;1.10;;;15.60;99.90;;;;;;4991767;28;20113;-52
2021/08/22 06:46:24;;;;;;;12.40;1.65;;;15.60;99.90;;;;;;4991545;28;20025;-51
2021/08/22 06:48:49;;;;;;;3.63;1.20;;;15.60;99.90;;;;;;4991333;28;20654;-53
2021/08/22 06:51:15;;;;;;;1.58;1.30;;;15.60;99.90;;;;;;4991447;28;20101;-51
2021/08/22 06:53:40;;;;;;;1.63;1.30;;;15.60;99.90;;;;;;4991767;28;20389;-51
2021/08/22 06:56:06;;;;;;;1.38;1.27;;;15.60;99.90;;;;;;4991402;28;20027;-52
2021/08/22 06:58:31;;;;;;;1.58;1.33;;;15.50;99.90;;;;;;4991231;28;20061;-50
2021/08/22 07:00:57;;;;;;;1.52;1.42;;;15.50;99.90;;;;;;4991337;28;20077;-53
2021/08/22 07:03:23;;;;;;;1.38;1.27;;;15.60;99.90;;;;;;4991299;28;20026;-47
2021/08/22 07:05:48;;;;;;;1.40;1.17;;;15.60;99.90;;;;;;4989788;28;20040;-51
2021/08/22 07:08:14;;;;;;;1.08;0.90;;;15.60;99.90;;;;;;4991200;28;20026;-50
2021/08/22 07:10:40;;;;;;;2.60;1.40;;;15.60;99.90;;;;;;4990977;28;20026;-51
2021/08/22 07:13:06;;;;;;;2.10;1.33;;;15.70;99.90;;;;;;4991319;28;20035;-51
2021/08/22 07:15:31;;;;;;;4.03;1.40;;;15.70;99.90;;;;;;4990684;28;20433;-52
2021/08/22 07:17:57;;;;;;;2.22;1.50;;;15.70;99.90;;;;;;4990857;28;20028;-52
2021/08/22 07:20:22;;;;;;;1.50;1.40;;;15.70;99.90;;;;;;4990958;28;20018;-50
2021/08/22 07:22:48;;;;;;;1.67;1.30;;;15.70;99.90;;;;;;4990956;28;20369;-52
2021/08/22 07:25:14;;;;;;;1.40;1.30;;;15.80;99.90;;;;;;5005989;28;20024;-50
2021/08/22 07:27:39;;;;;;;1.77;1.35;;;15.80;99.90;;;;;;4985584;28;20019;-51
2021/08/22 07:30:05;;;;;;;1.35;1.25;;;15.80;99.90;;;;;;4988938;28;20030;-54
2021/08/22 07:32:31;;;;;;;1.42;1.25;;;15.80;99.90;;;;;;4990954;28;20027;-52
2021/08/22 07:34:57;;;;;;;1.60;1.40;;;15.80;99.90;;;;;;4990307;28;20033;-52
2021/08/22 07:37:22;;;;;;;1.30;1.20;;;15.80;99.90;;;;;;4990899;28;20018;-51
2021/08/22 07:39:48;;;;;;;1.98;1.70;;;15.80;99.90;;;;;;4990258;28;20026;-55
2021/08/22 07:42:14;;;;;;;1.33;1.23;;;15.80;99.90;;;;;;4990755;28;20018;-53
2021/08/22 07:44:39;;;;;;;1.52;1.10;;;15.80;99.90;;;;;;4989396;28;20026;-49
2021/08/22 07:47:05;;;;;;;1.42;1.30;;;15.80;99.90;;;;;;4990283;28;20101;-55
2021/08/22 07:49:30;;;;;;;1.45;1.35;;;15.80;99.90;;;;;;4990541;28;20065;-52
2021/08/22 07:51:56;;;;;;;2.72;1.48;;;15.80;99.90;;;;;;4990053;28;20033;-54
2021/08/22 07:54:22;;;;;;;1.40;1.30;;;15.90;99.90;;;;;;4990266;28;20030;-55
2021/08/22 07:56:47;;;;;;;1.40;1.30;;;15.90;99.90;;;;;;4990129;28;20018;-51
2021/08/22 07:59:13;;;;;;;1.23;1.13;;;15.90;99.90;;;;;;4989584;28;20026;-53
2021/08/22 08:01:39;;;;;;;1.98;1.55;;;16.00;99.90;;;;;;4988677;28;20053;-52
2021/08/22 08:04:05;;;;;;;2.38;1.40;;;16.00;99.90;;;;;;4989796;28;20105;-54
2021/08/22 08:06:30;;;;;;;3.90;3.50;;;16.00;99.90;;;;;;4984113;28;20030;-52
2021/08/22 08:08:56;;;;;;;4.03;3.05;;;16.10;99.90;;;;;;4973428;28;20023;-53
2021/08/22 08:11:21;;;;;;;6.47;4.25;;;16.10;99.90;;;;;;4975577;28;20468;-52
2021/08/22 08:13:47;;;;;;;8.13;4.47;;;16.20;99.90;;;;;;4988488;28;20033;-51
2021/08/22 08:16:13;;;;;;;5.78;4.13;;;16.20;99.90;;;;;;4988285;28;20034;-53
2021/08/22 08:18:38;;;;;;;4.40;3.45;;;16.30;99.90;;;;;;4986857;28;20050;-50
2021/08/22 08:21:04;;;;;;;3.72;2.97;;;16.30;99.90;;;;;;4989324;28;20023;-51
2021/08/22 08:23:30;;;;;;;3.63;1.55;;;16.40;99.90;;;;;;4985755;28;20030;-53
2021/08/22 08:25:57;;;;;;;2.03;1.83;;;16.50;99.90;;;;;;4988018;28;20036;-52
2021/08/22 08:28:23;;;;;;;1.50;1.30;;;16.50;99.90;;;;;;4983115;28;20022;-51
2021/08/22 08:30:49;;;;;;;1.83;1.40;;;16.50;99.90;;;;;;4989421;28;20077;-50
2021/08/22 08:33:15;;;;;;;2.65;1.65;;;16.60;99.90;;;;;;4989410;28;20056;-51
2021/08/22 08:35:41;;;;;;;1.35;1.10;;;16.60;99.90;;;;;;4988903;28;20021;-55
2021/08/22 08:38:06;;;;;;;3.17;1.58;;;16.60;99.90;;;;;;4986381;28;20026;-52
2021/08/22 08:40:33;;;;;;;2.17;1.38;;;16.60;99.90;;;;;;4989366;28;20056;-51
2021/08/22 08:43:04;;;;;;;2.08;1.45;;;16.70;99.90;;;;;;4989345;28;20023;-50
2021/08/22 08:45:50;;;;;;;1.45;1.35;;;16.80;99.90;;;;;;4989003;28;20220;-51
2021/08/22 08:48:40;;;;;;;1.40;1.30;;;16.90;99.90;;;;;;4989293;28;20050;-52
2021/08/22 08:51:17;;;;;;;1.50;1.40;;;16.90;99.90;;;;;;4987747;28;20045;-53
2021/08/22 08:53:49;;;;;;;2.20;1.23;;;17.00;99.90;;;;;;4989059;28;20050;-51
2021/08/22 08:56:15;;;;;;;2.42;1.52;;;17.10;99.90;;;;;;4989022;28;20105;-53
2021/08/22 08:58:41;;;;;;;1.70;1.15;;;17.10;99.90;;;;;;4989388;28;20029;-49
2021/08/22 09:01:06;;;;;;;1.48;1.30;;;17.20;99.90;;;;;;4989251;28;20035;-52
2021/08/22 09:03:35;;;;;;;2.28;1.30;;;17.20;99.90;;;;;;4989080;28;20018;-51
2021/08/22 09:06:28;;;;;;;1.13;1.00;;;17.20;99.90;;;;;;4988374;28;20092;-51
2021/08/22 09:09:32;;;;;;;1.30;1.20;;;17.20;99.90;;;;;;4987988;28;20025;-53
2021/08/22 09:12:22;;;;;;;3.25;1.40;;;17.30;99.90;;;;;;4985867;28;20077;-49
2021/08/22 09:15:22;;;;;;;1.50;1.40;;;17.30;99.90;;;;;;4974132;28;20019;-51
2021/08/22 09:18:24;;;;;;;3.13;1.20;;;17.40;99.90;;;;;;4984586;28;20024;-51
2021/08/22 09:21:27;;;;;;;1.63;1.27;;;17.40;99.90;;;;;;4985340;28;20022;-53
2021/08/22 09:24:29;;;;;;;2.60;1.30;;;17.40;99.90;;;;;;4988788;28;20030;-54
2021/08/22 09:27:28;;;;;;;1.42;1.00;;;17.50;99.90;;;;;;4978486;28;20057;-53
2021/08/22 09:30:13;;;;;;;1.98;1.40;;;17.60;99.90;;;;;;4973687;28;20496;-52
2021/08/22 09:33:29;;;;;;;2.25;1.40;;;17.60;99.90;;;;;;4983317;28;20026;-52
2021/08/22 09:36:23;;;;;;;1.20;1.10;;;17.70;99.90;;;;;;4980720;28;20023;-51
2021/08/22 09:39:08;;;;;;;2.25;1.02;;;17.70;99.90;;;;;;4983172;28;20026;-52
2021/08/22 09:42:02;;;;;;;1.58;1.02;;;17.70;99.90;;;;;;4976479;28;20111;-54
2021/08/22 09:44:47;;;;;;;1.45;1.30;;;17.70;99.90;;;;;;5002810;28;20025;-53
2021/08/22 09:47:52;;;;;;;1.55;1.33;;;17.80;99.90;;;;;;4988628;28;20045;-53
2021/08/22 09:50:55;;;;;;;1.20;1.10;;;17.90;99.90;;;;;;4988483;28;20030;-52
2021/08/22 09:53:58;;;;;;;1.50;1.40;;;17.90;99.90;;;;;;4982614;28;20026;-51
2021/08/22 09:57:00;;;;;;;1.95;1.10;;;17.90;99.90;;;;;;4987899;28;20532;-51
2021/08/22 09:59:52;;;;;;;1.90;1.20;;;17.90;99.90;;;;;;4988467;28;20034;-50
2021/08/22 10:02:24;;;;;;;1.30;1.15;;;17.80;99.90;;;;;;4985936;28;20030;-51
2021/08/22 10:05:13;;;;;;;1.83;1.27;;;17.80;99.90;;;;;;4988492;28;20057;-51
2021/08/22 10:08:04;;;;;;;1.30;1.20;;;17.80;99.90;;;;;;4986154;28;20600;-52
2021/08/22 10:10:48;;;;;;;2.60;1.48;;;17.80;99.90;;;;;;4987422;28;20018;-51
2021/08/22 10:13:13;;;;;;;2.78;1.50;;;17.90;99.90;;;;;;4991938;28;20401;-51
2021/08/22 10:15:44;;;;;;;1.70;1.23;;;17.90;99.90;;;;;;4991046;28;20088;-52
2021/08/22 10:18:10;;;;;;;1.73;1.27;;;17.90;99.90;;;;;;4992531;28;20374;-50
2021/08/22 10:20:40;;;;;;;3.70;1.40;;;18.00;99.90;;;;;;4992249;28;20660;-53
2021/08/22 10:23:25;;;;;;;2.05;1.75;;;17.90;99.90;;;;;;4990437;28;20156;-50
2021/08/22 10:25:54;;;;;;;1.80;1.60;;;17.90;99.90;;;;;;4991972;28;20033;-52
2021/08/22 10:28:49;;;;;;;1.48;1.38;;;17.80;99.90;;;;;;4983557;28;20019;-54
2021/08/22 10:31:49;;;;;;;2.47;1.80;;;17.80;99.90;;;;;;4992056;28;20025;-51
2021/08/22 10:34:20;;;;;;;1.85;1.40;;;17.80;99.90;;;;;;4990596;28;20026;-50
2021/08/22 10:36:46;;;;;;;1.67;1.40;;;17.80;99.90;;;;;;4991443;28;20030;-49
2021/08/22 10:39:25;;;;;;;2.58;1.75;;;17.80;99.90;;;;;;4991799;28;20019;-50
2021/08/22 10:41:56;;;;;;;1.80;1.60;;;17.80;99.90;;;;;;4992181;28;20492;-53
2021/08/22 10:44:33;;;;;;;3.88;1.80;;;17.80;99.90;;;;;;4984045;28;20116;-52
2021/08/22 10:47:04;;;;;;;1.77;1.67;;;17.80;99.90;;;;;;4991502;28;20110;-54
2021/08/22 10:49:51;;;;;;;1.58;1.48;;;17.70;99.90;;;;;;4991826;28;20609;-52
2021/08/22 10:52:32;;;;;;;2.65;1.77;;;17.70;99.90;;;;;;4991907;28;20025;-50
2021/08/22 10:55:13;;;;;;;2.00;1.85;;;17.60;99.90;;;;;;4991680;28;20019;-51
2021/08/22 10:57:45;;;;;;;2.28;2.03;;;17.70;99.90;;;;;;4986662;28;20101;-50
2021/08/22 11:00:30;;;;;;;3.53;2.13;;;17.60;99.90;;;;;;4991779;28;20101;-50
2021/08/22 11:03:01;;;;;;;3.58;2.63;;;17.60;99.90;;;;;;4987512;28;20030;-51
2021/08/22 11:05:34;;;;;;;4.72;2.15;;;17.60;99.90;;;;;;4991044;28;20076;-49
2021/08/22 11:08:17;;;;;;;2.35;2.15;;;17.50;99.90;;;;;;4990416;28;20457;-51
2021/08/22 11:11:00;;;;;;;2.22;1.98;;;17.50;99.90;;;;;;4991082;28;20030;-52
2021/08/22 11:13:27;;;;;;;3.38;1.80;;;17.40;99.90;;;;;;4984212;28;20069;-51
2021/08/22 11:15:53;;;;;;;3.88;1.50;;;17.40;99.90;;;;;;4989796;28;20027;-53
2021/08/22 11:18:19;;;;;;;1.98;1.73;;;17.30;99.90;;;;;;4991445;28;20030;-50
2021/08/22 11:20:45;;;;;;;2.25;1.60;;;17.30;99.90;;;;;;4991230;28;20046;-50
2021/08/22 11:25:39;;;;;;;2.03;1.88;;;17.20;99.90;;;;;;4929908;29;20062;-52
2021/08/22 11:28:13;;;;;;;1.88;1.60;;;17.10;99.90;;;;;;4926679;29;20491;-51
2021/08/22 11:30:40;;;;;;;1.67;1.58;;;17.10;99.90;;;;;;4933327;29;20027;-51
2021/08/22 11:33:07;;;;;;;3.22;1.85;;;17.00;99.90;;;;;;4929369;29;20482;-53
2021/08/22 11:35:44;;;;;;;2.88;1.67;;;17.00;99.90;;;;;;4931782;29;20582;-53
2021/08/22 11:38:10;;;;;;;2.70;1.77;;;16.90;99.90;;;;;;4927455;29;20516;-50
2021/08/22 11:40:38;;;;;;;2.40;1.70;;;16.80;99.90;;;;;;4933628;29;20028;-48
2021/08/22 11:43:06;;;;;;;1.63;1.33;;;16.80;99.90;;;;;;4927263;29;20055;-53
2021/08/22 11:45:41;;;;;;;2.72;2.15;;;16.70;99.90;;;;;;4932960;29;20499;-52
2021/08/22 11:48:13;;;;;;;3.93;2.00;;;16.70;99.90;;;;;;4931694;29;20031;-51
2021/08/22 11:50:39;;;;;;;2.35;2.03;;;16.70;99.90;;;;;;4932097;29;20501;-51
2021/08/22 11:53:06;;;;;;;3.20;2.25;;;16.70;99.90;;;;;;4931770;29;20114;-56
2021/08/22 11:55:33;;;;;;;3.60;2.25;;;16.80;99.90;;;;;;4929163;29;20108;-51
2021/08/22 11:58:14;;;;;;;3.17;2.20;;;16.80;99.90;;;;;;4932310;29;20111;-53
2021/08/22 12:00:51;;;;;;;2.80;1.85;;;16.80;99.90;;;;;;4928745;29;20067;-55
2021/08/22 12:03:19;;;;;;;3.08;2.00;;;16.90;99.90;;;;;;4932891;29;20390;-54
2021/08/22 12:06:07;;;;;;;3.08;2.35;;;16.90;99.90;;;;;;4927382;29;20479;-52
2021/08/22 12:08:33;;;;;;;3.03;1.90;;;16.90;99.90;;;;;;4926874;29;20051;-50
2021/08/22 12:11:22;;;;;;;2.20;1.88;;;16.90;99.90;;;;;;4928664;29;20059;-52
2021/08/22 12:13:48;;;;;;;2.95;2.65;;;17.00;99.90;;;;;;4931073;29;20031;-50
2021/08/22 12:16:30;;;;;;;3.45;2.28;;;17.00;99.90;;;;;;4926918;29;20036;-51
2021/08/22 12:19:19;;;;;;;2.70;2.15;;;17.00;99.90;;;;;;4928288;29;20032;-50
2021/08/22 12:21:46;;;;;;;3.58;2.40;;;17.00;99.90;;;;;;4932481;29;20475;-47
2021/08/22 12:24:26;;;;;;;2.60;2.40;;;17.00;99.90;;;;;;4927549;29;20035;-49
2021/08/22 12:26:57;;;;;;;4.78;2.70;;;17.00;99.90;;;;;;4932538;29;20023;-48
2021/08/22 12:29:38;;;;;;;2.47;2.28;;;17.00;99.90;;;;;;4931109;29;20447;-49
2021/08/22 12:32:19;;;;;;;4.03;2.05;;;17.10;99.90;;;;;;4929543;29;20535;-46
2021/08/22 12:34:45;;;;;;;3.30;2.42;;;17.10;99.90;;;;;;4925989;29;20030;-51
2021/08/22 12:37:13;;;;;;;3.75;2.60;;;17.10;99.90;;;;;;4926162;29;20059;-54
2021/08/22 12:39:40;;;;;;;2.67;2.40;;;17.10;99.90;;;;;;4929538;29;20382;-47
2021/08/22 12:42:05;;;;;;;2.53;2.33;;;17.10;99.90;;;;;;4926568;29;20043;-46
2021/08/22 12:44:31;;;;;;;3.20;2.50;;;17.10;99.90;;;;;;4928111;29;20024;-52
2021/08/22 12:47:02;;;;;;;3.97;2.35;;;17.10;99.90;;;;;;4931708;29;20028;-51
2021/08/22 12:49:30;;;;;;;2.45;2.25;;;17.20;99.90;;;;;;4928417;29;20418;-48
2021/08/22 12:51:57;;;;;;;2.20;2.03;;;17.10;99.90;;;;;;4930882;29;20051;-53
2021/08/22 12:54:25;;;;;;;2.90;2.60;;;17.00;99.90;;;;;;4927878;29;20139;-48
2021/08/22 12:56:51;;;;;;;2.35;2.15;;;16.90;99.90;;;;;;4929853;29;20020;-47
2021/08/22 12:59:18;;;;;;;2.85;2.22;;;16.90;99.90;;;;;;4926992;29;20501;-49
2021/08/22 13:01:45;;;;;;;3.47;2.40;;;16.90;99.90;;;;;;4929216;29;20490;-53
2021/08/22 13:04:16;;;;;;;2.40;2.20;;;16.90;99.90;;;;;;4929924;29;20020;-51
2021/08/22 13:06:41;;;;;;;2.97;2.45;;;17.00;99.90;;;;;;4928381;29;20066;-49